Norfolk Island International Airport
YSNF : now visible

Airfield :











YOU CAN JOIN US ON...

 
LOGIN :

Register | Disclaimer

   EN    FR    IT 

 









Legend :    VFR   Marginal VFR   IFR   Intensive IFR   Very Intensive IFR
Visi :
Ceiling :
>= 8 km
>= 3000ft
5 to 8 km
1000 to 3000 ft
1500m to 5 km
500 to 1000 ft
800 to 1500m
200 to 500 ft
< 800m
< 200 ft
Symbols :   Thunderstorms  Fog  Heavy snow  Heavy precipitations  Wind > 20 kt






- Airport Elevation : 371 ft
- IATA code : NLK


YSNF - Norfolk Island International

CURRENT METAR :
  • 050730Z AUTO 07008KT 9999 // OVC005 22/21 Q1015 RF00.0/000.0

EXPIRED METARs :
  • 050700Z AUTO 06008KT 9999 // BKN006 OVC010 22/21 Q1015
  • 050630Z AUTO 06009KT 9999 // OVC008 22/21 Q1014 RF00/0/000/0
  • 050600Z AUTO 04007KT 9999 // BKN008 OVC015 22/21 Q1014
  • 050530Z AUTO 05010KT 9999 // OVC008 23/21 Q1014 RF00/0/000/0
  • 050500Z AUTO 05012KT 9999 // OVC008 23/21 Q1013 RF00.0/000.0

TAF TAF YSNF
Valid from the 05 at 06:00 until the 06 at 06:00 UTC


050522Z 0506/0606 05012KT 9999 BKN007
FM051000 06008KT 9999 BKN006
FM060000 09010KT 9999 BKN006
NZZO FIR / Oceania



MET'MAP, your aeronautical weather chart ! - Copyright ORBIFLY December 2007 - Disclaimer

ORBIFLY MET'MAP TEAM :

Programming & Development : Alexandra Zaïnal
Concept & original design : Baudouin d'Aumeries
Assistance for programming : Marc-Olivier Méhu
Technical & hardware support : Manuel Goepfert

Contact : metmap@orbifly.com




SOURCES & CREDITS :

   NOAA       Earth
Advisory